METAR Data
IDs: Format: Raw Decoded Include TAF

Data at: 0718 UTC 03 Aug 2021

KF70 030715Z AUTO 00000KT 10SM CLR 24/10 A3002 RMK AO2
KF70 030655Z AUTO 00000KT 10SM CLR 23/09 A3002 RMK AO2
KF70 030635Z AUTO 00000KT 10SM CLR 25/09 A3002 RMK AO2
KF70 030615Z AUTO 00000KT 10SM CLR 26/10 A3002 RMK AO2
KF70 030555Z AUTO 00000KT 10SM CLR 25/10 A3002 RMK AO2
KF70 030535Z AUTO 00000KT 10SM CLR 25/10 A3002 RMK AO2
KF70 030515Z AUTO 07003KT 10SM CLR 27/10 A3003 RMK AO2
KF70 030455Z AUTO 00000KT 10SM CLR 26/10 A3003 RMK AO2
KF70 030435Z AUTO 00000KT 10SM CLR 27/10 A3003 RMK AO2
KF70 030415Z AUTO 00000KT 10SM CLR 28/09 A3002 RMK AO2
KF70 030355Z AUTO 00000KT 10SM CLR 28/09 A3001 RMK AO2
KF70 030335Z AUTO 00000KT 10SM CLR 29/09 A3000 RMK AO2
KF70 030315Z AUTO 00000KT 10SM CLR 29/09 A3000 RMK AO2
KF70 030255Z AUTO 21003KT 10SM CLR 29/10 A3000 RMK AO2
KF70 030235Z AUTO 20005KT 10SM CLR 31/09 A2999 RMK AO2
KF70 030215Z AUTO 17006KT 10SM CLR 31/09 A2999 RMK AO2
KF70 030155Z AUTO 17007KT 10SM CLR 32/09 A2998 RMK AO2
KF70 030135Z AUTO 19009KT 10SM CLR 33/09 A2998 RMK AO2
KF70 030115Z AUTO 19009KT 10SM CLR 34/09 A2996 RMK AO2
KF70 030055Z AUTO 16010KT 10SM CLR 35/09 A2996 RMK AO2
KF70 030035Z AUTO 19011KT 10SM CLR 36/09 A2996 RMK AO2
KF70 030015Z AUTO 20006KT 10SM CLR 36/07 A2996 RMK AO2
KF70 022355Z AUTO 20011G15KT 10SM CLR 37/08 A2996 RMK AO2
KF70 022335Z AUTO 20014G21KT 10SM CLR 38/08 A2996 RMK AO2
KF70 022315Z AUTO 20012G18KT 10SM CLR 38/08 A2996 RMK AO2
KF70 022255Z AUTO 20011G18KT 10SM CLR 39/07 A2996 RMK AO2
KF70 022235Z AUTO 23011G16KT 10SM CLR 39/06 A2997 RMK AO2
KF70 022215Z AUTO 19012G18KT 10SM CLR 39/08 A2997 RMK AO2
KF70 022155Z AUTO 21008G17KT 10SM CLR 39/07 A2998 RMK AO2
KF70 022135Z AUTO 22007KT 10SM CLR 39/08 A2998 RMK AO2
KF70 022115Z AUTO 23009KT 10SM CLR 39/08 A2999 RMK AO2
KF70 022055Z AUTO 18010G17KT 160V240 10SM CLR 39/06 A2999 RMK AO2
KF70 022035Z AUTO 23004KT 10SM CLR 39/03 A3001 RMK AO2
KF70 022015Z AUTO 20007KT 10SM CLR 39/04 A3001 RMK AO2
KF70 021955Z AUTO 19003KT 10SM CLR 38/04 A3002 RMK AO2
KF70 021935Z AUTO 22004KT 10SM CLR 37/04 A3003 RMK AO2
KF70 021915Z AUTO 00000KT 10SM CLR 36/04 A3004 RMK AO2
KF70 021855Z AUTO 00000KT 10SM CLR 36/04 A3004 RMK AO2
KF70 021835Z AUTO 22005KT 10SM CLR 35/03 A3005 RMK AO2
KF70 021815Z AUTO 21003KT 10SM CLR 34/03 A3006 RMK AO2
KF70 021755Z AUTO 00000KT 10SM CLR 34/05 A3006 RMK AO2
KF70 021735Z AUTO 00000KT 10SM CLR 32/06 A3007 RMK AO2
KF70 021715Z AUTO 00000KT 10SM CLR 31/07 A3007 RMK AO2
KF70 021655Z AUTO 00000KT 10SM CLR 30/08 A3008 RMK AO2
KF70 021635Z AUTO 00000KT 10SM CLR 29/08 A3008 RMK AO2
KF70 021615Z AUTO 00000KT 10SM CLR 28/08 A3008 RMK AO2
KF70 021555Z AUTO 00000KT 10SM CLR 27/08 A3009 RMK AO2
KF70 021535Z AUTO 00000KT 10SM CLR 27/07 A3009 RMK AO2
KF70 021515Z AUTO 00000KT 10SM CLR 25/07 A3009 RMK AO2
KF70 021455Z AUTO 00000KT 10SM CLR 24/07 A3009 RMK AO2
KF70 021435Z AUTO 00000KT 10SM CLR 23/07 A3009 RMK AO2
KF70 021415Z AUTO 00000KT 10SM CLR 21/08 A3008 RMK AO2
KF70 021355Z AUTO 00000KT 10SM CLR 20/08 A3008 RMK AO2
KF70 021335Z AUTO 00000KT 10SM CLR 20/07 A3008 RMK AO2
KF70 021315Z AUTO 00000KT 10SM CLR 19/07 A3007 RMK AO2
KF70 021255Z AUTO 00000KT 10SM CLR 20/07 A3007 RMK AO2
KF70 021235Z AUTO 00000KT 10SM CLR 19/08 A3006 RMK AO2
KF70 021215Z AUTO 33003KT 10SM CLR 19/08 A3006 RMK AO2
KF70 021155Z AUTO 02003KT 10SM CLR 20/07 A3006 RMK AO2
KF70 021135Z AUTO 00000KT 10SM CLR 20/07 A3005 RMK AO2
KF70 021115Z AUTO 00000KT 10SM CLR 20/07 A3005 RMK AO2
KF70 021055Z AUTO 00000KT 10SM CLR 20/07 A3005 RMK AO2
KF70 021035Z AUTO 00000KT 10SM CLR 20/07 A3005 RMK AO2
KF70 021015Z AUTO 00000KT 10SM CLR 20/08 A3005 RMK AO2
KF70 020955Z AUTO 00000KT 10SM CLR 22/07 A3005 RMK AO2
KF70 020935Z AUTO 00000KT 10SM CLR 22/06 A3005 RMK AO2
KF70 020915Z AUTO 00000KT 10SM CLR 21/08 A3006 RMK AO2
KF70 020855Z AUTO 00000KT 10SM CLR 22/07 A3006 RMK AO2
KF70 020835Z AUTO 00000KT 10SM CLR 23/06 A3006 RMK AO2
KF70 020815Z AUTO 00000KT 10SM CLR 23/07 A3006 RMK AO2
KF70 020755Z AUTO 00000KT 10SM CLR 23/07 A3006 RMK AO2
KF70 020735Z AUTO 00000KT 10SM CLR 23/05 A3006 RMK AO2
KF70 020715Z AUTO 00000KT 10SM CLR 23/06 A3006 RMK AO2
KF70 020655Z AUTO 00000KT 10SM CLR 25/07 A3007 RMK AO2
KF70 020635Z AUTO 00000KT 10SM CLR 26/07 A3007 RMK AO2
KF70 020615Z AUTO 00000KT 10SM CLR 26/03 A3007 RMK AO2
KF70 020555Z AUTO 00000KT 10SM CLR 26/05 A3007 RMK AO2
KF70 020535Z AUTO 00000KT 10SM CLR 26/09 A3007 RMK AO2
KF70 020515Z AUTO 00000KT 10SM CLR 27/11 A3007 RMK AO2
KF70 020455Z AUTO 00000KT 10SM CLR 26/11 A3007 RMK AO2
KF70 020435Z AUTO 13003KT 10SM CLR 27/11 A3006 RMK AO2
KF70 020415Z AUTO 00000KT 10SM CLR 27/11 A3005 RMK AO2
KF70 020355Z AUTO 00000KT 10SM CLR 28/11 A3005 RMK AO2
KF70 020335Z AUTO 14003KT 10SM CLR 28/12 A3004 RMK AO2
KF70 020315Z AUTO 21003KT 10SM CLR 29/12 A3003 RMK AO2
KF70 020255Z AUTO 19004KT 10SM CLR 30/12 A3003 RMK AO2
KF70 020235Z AUTO 20004KT 10SM CLR 30/12 A3003 RMK AO2
KF70 020215Z AUTO 20005KT 10SM CLR 31/12 A3002 RMK AO2
KF70 020155Z AUTO 18008KT 10SM CLR 32/12 A3002 RMK AO2
KF70 020135Z AUTO 17007KT 10SM CLR 33/12 A3001 RMK AO2
KF70 020115Z AUTO 19008KT 10SM CLR 33/12 A3001 RMK AO2
KF70 020055Z AUTO 00000KT 10SM CLR 33/11 A3001 RMK AO2
KF70 020035Z AUTO 17005KT 10SM CLR 33/12 A3001 RMK AO2
KF70 020015Z AUTO 17009KT 10SM CLR 34/12 A3001 RMK AO2
KF70 012355Z AUTO 18012KT 10SM CLR 35/11 A3001 RMK AO2
KF70 012335Z AUTO 19012KT 10SM CLR 35/11 A3001 RMK AO2
KF70 012315Z AUTO 19012G16KT 10SM CLR 35/11 A3001 RMK AO2
KF70 012255Z AUTO 19008KT 10SM CLR 35/11 A3002 RMK AO2
KF70 012235Z AUTO 19011KT 10SM CLR 36/11 A3002 RMK AO2
KF70 012215Z AUTO 20009G14KT 10SM CLR 36/10 A3002 RMK AO2
KF70 012155Z AUTO 20011KT 10SM CLR 36/10 A3003 RMK AO2
KF70 012135Z AUTO 19012G15KT 10SM CLR 35/11 A3003 RMK AO2
KF70 012115Z AUTO 21011G15KT 10SM CLR 35/12 A3003 RMK AO2
KF70 012055Z AUTO 21009G14KT 10SM CLR 36/11 A3003 RMK AO2
KF70 012035Z AUTO 20005KT 10SM CLR 37/07 A3003 RMK AO2
KF70 012015Z AUTO 21008KT 10SM CLR 35/08 A3003 RMK AO2
KF70 011955Z AUTO 21007KT 180V240 10SM CLR 35/07 A3004 RMK AO2
KF70 011935Z AUTO 21003KT 10SM CLR 35/06 A3005 RMK AO2